Time;durP1;ratioP1;P1;durP2;ratioP2;P2;SDS_P1;SDS_P2;PMS_P1;PMS_P2;Temp;Humidity;BMP_temperature;BMP_pressure;BME280_temperature;BME280_humidity;BME280_pressure;Samples;Min_cycle;Max_cycle;Signal;HPM_P1;HPM_P2
2023/01/03 00:01:29;;;;;;;14.55;9.50;;;4.30;99.90;;;;;;5074035;28;20422;-51
2023/01/03 00:03:56;;;;;;;11.10;8.80;;;4.30;99.90;;;;;;5073799;28;20020;-49
2023/01/03 00:06:24;;;;;;;12.95;8.70;;;4.40;99.90;;;;;;5056252;28;20435;-49
2023/01/03 00:08:51;;;;;;;12.05;9.50;;;4.40;99.90;;;;;;5053607;28;20036;-48
2023/01/03 00:12:22;;;;;;;12.40;9.60;;;4.30;99.90;;;;;;5053501;28;20392;-49
2023/01/03 00:14:06;;;;;;;12.75;9.73;;;4.30;99.90;;;;;;5053414;28;20021;-55
2023/01/03 00:16:31;;;;;;;15.43;9.82;;;4.40;99.90;;;;;;5053628;28;20029;-51
2023/01/03 00:18:57;;;;;;;13.13;9.02;;;4.50;99.90;;;;;;5053429;28;20024;-55
2023/01/03 00:21:23;;;;;;;10.88;8.55;;;4.50;99.90;;;;;;5072825;28;20020;-53
2023/01/03 00:23:48;;;;;;;10.85;8.02;;;4.50;99.90;;;;;;5072178;28;20527;-52
2023/01/03 00:26:14;;;;;;;14.77;9.93;;;4.50;99.90;;;;;;5073350;28;20029;-51
2023/01/03 00:28:41;;;;;;;15.63;8.45;;;4.60;99.90;;;;;;5072607;28;20538;-52
2023/01/03 00:31:08;;;;;;;9.10;7.72;;;4.60;99.90;;;;;;5072506;28;20025;-51
2023/01/03 00:33:38;;;;;;;13.90;8.75;;;4.70;99.90;;;;;;5072139;28;20024;-54
2023/01/03 00:36:05;;;;;;;10.55;8.52;;;4.70;99.90;;;;;;5053479;28;20559;-51
2023/01/03 00:38:32;;;;;;;17.45;9.10;;;4.60;99.90;;;;;;5050858;28;20426;-49
2023/01/03 00:41:10;;;;;;;14.07;8.05;;;4.70;99.90;;;;;;5052178;28;20025;-54
2023/01/03 00:43:36;;;;;;;10.00;7.82;;;4.70;99.90;;;;;;5052369;28;20037;-51
2023/01/03 00:46:03;;;;;;;11.52;8.52;;;4.80;99.90;;;;;;5052737;28;20036;-51
2023/01/03 00:48:29;;;;;;;8.93;7.95;;;4.80;99.90;;;;;;5052899;28;20055;-53
2023/01/03 00:50:55;;;;;;;14.70;7.35;;;4.80;99.90;;;;;;5072495;28;20693;-53
2023/01/03 00:53:22;;;;;;;11.15;8.25;;;4.80;99.90;;;;;;5072722;28;20033;-52
2023/01/03 00:55:48;;;;;;;10.32;7.50;;;4.90;99.90;;;;;;5072897;28;20075;-49
2023/01/03 00:58:14;;;;;;;11.18;8.38;;;4.90;99.90;;;;;;5072775;28;20025;-50
2023/01/03 01:00:39;;;;;;;10.75;7.38;;;4.90;99.90;;;;;;5072697;28;20023;-53
2023/01/03 01:03:05;;;;;;;11.73;6.95;;;4.90;99.90;;;;;;5072575;28;20016;-50
2023/01/03 01:05:31;;;;;;;7.90;6.43;;;5.00;99.90;;;;;;5053897;28;20067;-51
2023/01/03 01:07:57;;;;;;;8.82;7.07;;;5.00;99.90;;;;;;5052682;28;20052;-50
2023/01/03 01:10:23;;;;;;;12.35;7.80;;;5.00;99.90;;;;;;5052449;28;20076;-48
2023/01/03 01:12:49;;;;;;;9.73;6.70;;;5.10;99.90;;;;;;5052592;28;20021;-50
2023/01/03 01:15:15;;;;;;;11.43;6.57;;;5.10;99.90;;;;;;5052597;28;20039;-50
2023/01/03 01:17:41;;;;;;;9.52;6.03;;;5.10;99.90;;;;;;5052084;28;20025;-54
2023/01/03 01:20:07;;;;;;;12.90;6.55;;;5.10;99.90;;;;;;5069606;28;20025;-49
2023/01/03 01:22:34;;;;;;;11.18;6.50;;;5.20;99.90;;;;;;5072211;28;20048;-48
2023/01/03 01:25:00;;;;;;;7.45;6.22;;;5.10;99.90;;;;;;5072710;28;20451;-51
2023/01/03 01:27:25;;;;;;;8.57;6.55;;;5.10;99.90;;;;;;5071985;28;20107;-51
2023/01/03 01:29:51;;;;;;;11.57;7.40;;;5.10;99.90;;;;;;5072177;28;20131;-52
2023/01/03 01:32:17;;;;;;;10.55;6.65;;;5.10;99.90;;;;;;5072039;28;20452;-49
2023/01/03 01:34:42;;;;;;;9.30;6.88;;;5.10;99.90;;;;;;5055957;28;20033;-52
2023/01/03 01:37:08;;;;;;;12.95;7.95;;;5.10;99.90;;;;;;5051968;28;20029;-53
2023/01/03 01:39:34;;;;;;;10.15;6.82;;;5.10;99.90;;;;;;5052099;28;20021;-52
2023/01/03 01:44:56;;;;;;;10.38;7.03;;;5.10;99.90;;;;;;5051527;28;20040;-50
2023/01/03 01:47:28;;;;;;;9.65;6.63;;;5.20;99.90;;;;;;5050662;28;20397;-53
2023/01/03 01:50:12;;;;;;;10.80;7.00;;;5.20;99.90;;;;;;5051896;28;20430;-49
2023/01/03 01:52:43;;;;;;;8.55;6.88;;;5.20;99.90;;;;;;5051745;28;20061;-50
2023/01/03 01:55:13;;;;;;;13.32;6.35;;;5.20;99.90;;;;;;5067047;28;20025;-49
2023/01/03 01:57:40;;;;;;;13.32;7.00;;;5.20;99.90;;;;;;5071757;28;20716;-52
2023/01/03 02:00:08;;;;;;;9.20;6.63;;;5.20;99.90;;;;;;5071604;28;20048;-52
2023/01/03 02:02:33;;;;;;;18.58;6.95;;;5.20;99.90;;;;;;5071534;28;20025;-52
2023/01/03 02:05:02;;;;;;;9.57;6.57;;;5.20;99.90;;;;;;5071539;28;20028;-51
2023/01/03 02:07:27;;;;;;;8.45;6.78;;;5.20;99.90;;;;;;5071609;28;20028;-53
2023/01/03 02:09:56;;;;;;;10.32;6.90;;;5.20;99.90;;;;;;5070137;28;20048;-49
2023/01/03 02:15:55;;;;;;;8.98;6.00;;;5.20;99.90;;;;;;5071537;28;20070;-50
2023/01/03 02:18:31;;;;;;;19.00;6.38;;;5.30;99.90;;;;;;5071312;28;20110;-51
2023/01/03 02:21:25;;;;;;;10.30;6.50;;;5.30;99.90;;;;;;5071543;28;20036;-51
2023/01/03 02:24:25;;;;;;;8.52;6.25;;;5.30;99.90;;;;;;5061099;28;20056;-50
2023/01/03 02:27:08;;;;;;;7.85;5.95;;;5.30;99.90;;;;;;5051400;28;20053;-49
2023/01/03 02:30:10;;;;;;;8.32;6.85;;;5.30;99.90;;;;;;5051366;28;20024;-50
2023/01/03 02:32:57;;;;;;;7.82;6.10;;;5.30;99.90;;;;;;5050375;28;20033;-53
2023/01/03 02:35:29;;;;;;;8.75;6.53;;;5.40;99.90;;;;;;5051206;28;20017;-50
2023/01/03 02:38:05;;;;;;;9.02;6.65;;;5.40;99.90;;;;;;5054133;28;20387;-48
2023/01/03 02:40:48;;;;;;;12.25;5.97;;;5.40;99.90;;;;;;5070933;28;20089;-53
2023/01/03 02:43:22;;;;;;;8.07;5.50;;;5.40;99.90;;;;;;5071245;28;20476;-54
2023/01/03 02:46:05;;;;;;;7.85;5.32;;;5.40;99.90;;;;;;5071340;28;20483;-52
2023/01/03 02:48:34;;;;;;;6.45;5.00;;;5.40;99.90;;;;;;5071249;28;20035;-51
2023/01/03 02:51:04;;;;;;;10.95;5.60;;;5.40;99.90;;;;;;5071059;28;20020;-52
2023/01/03 02:53:35;;;;;;;7.68;6.40;;;5.40;99.90;;;;;;5070180;28;20071;-52
2023/01/03 02:56:08;;;;;;;6.93;6.07;;;5.40;99.90;;;;;;5053589;28;20021;-52
2023/01/03 02:58:36;;;;;;;10.38;5.90;;;5.50;99.90;;;;;;5055073;28;20100;-51
2023/01/03 03:01:05;;;;;;;10.35;6.43;;;5.50;99.90;;;;;;5055041;28;20375;-50
2023/01/03 03:03:35;;;;;;;6.90;5.70;;;5.50;99.90;;;;;;5055910;28;20032;-53
2023/01/03 03:06:25;;;;;;;10.27;5.32;;;5.60;99.90;;;;;;5054933;28;20032;-50
2023/01/03 03:08:50;;;;;;;7.28;6.30;;;5.60;99.90;;;;;;5068393;28;20356;-51
2023/01/03 03:14:10;;;;;;;8.77;5.78;;;5.60;99.90;;;;;;5074831;28;20058;-48
2023/01/03 03:16:47;;;;;;;9.50;6.75;;;5.60;99.90;;;;;;5074616;28;20063;-55
2023/01/03 03:19:12;;;;;;;9.50;5.28;;;5.70;99.90;;;;;;5074746;28;20025;-51
2023/01/03 03:30:02;;;;;;;13.02;6.65;;;5.70;99.90;;;;;;5071885;28;20047;-49
2023/01/03 03:32:32;;;;;;;7.43;5.07;;;5.70;99.90;;;;;;5074402;28;20387;-48
2023/01/03 03:35:02;;;;;;;6.63;5.35;;;5.80;99.90;;;;;;5074384;28;20440;-49
2023/01/03 03:37:30;;;;;;;7.65;6.18;;;5.80;99.90;;;;;;5074239;28;20028;-49
2023/01/03 03:46:08;;;;;;;8.38;5.88;;;5.90;99.90;;;;;;5054667;28;20376;-50
2023/01/03 03:51:45;;;;;;;5.45;4.68;;;5.90;99.90;;;;;;5054188;28;20047;-52
2023/01/03 03:54:15;;;;;;;7.75;4.97;;;5.90;99.90;;;;;;5054087;28;20029;-50
2023/01/03 03:56:46;;;;;;;8.52;5.43;;;6.00;99.90;;;;;;5053950;28;20455;-49
2023/01/03 03:59:14;;;;;;;11.80;5.80;;;6.00;99.90;;;;;;5052782;28;20044;-49
2023/01/03 04:01:41;;;;;;;6.78;6.07;;;6.00;99.90;;;;;;5069113;28;20020;-51
2023/01/03 04:04:14;;;;;;;6.53;5.15;;;6.00;99.90;;;;;;5053849;28;20036;-50
2023/01/03 04:06:44;;;;;;;11.07;5.88;;;6.00;99.90;;;;;;5052977;28;20048;-50
2023/01/03 04:09:10;;;;;;;10.27;5.72;;;6.00;99.90;;;;;;5053568;28;20090;-48
2023/01/03 04:11:35;;;;;;;15.40;5.88;;;6.00;99.90;;;;;;5053681;28;20033;-52
2023/01/03 04:14:01;;;;;;;12.48;5.70;;;6.00;99.90;;;;;;5053626;28;20108;-50
2023/01/03 04:16:26;;;;;;;10.02;5.50;;;6.00;99.90;;;;;;5053538;28;20025;-51
2023/01/03 04:18:52;;;;;;;7.35;5.85;;;6.10;99.90;;;;;;5073189;28;20042;-53
2023/01/03 04:21:18;;;;;;;13.35;5.80;;;6.00;99.90;;;;;;5073444;28;20032;-55
2023/01/03 04:23:43;;;;;;;10.35;6.15;;;6.10;99.90;;;;;;5073723;28;20055;-52
2023/01/03 04:26:09;;;;;;;13.68;7.13;;;6.00;99.90;;;;;;5073298;28;20037;-50
2023/01/03 04:28:35;;;;;;;8.73;6.05;;;6.00;99.90;;;;;;5072105;28;20032;-51
2023/01/03 04:31:00;;;;;;;9.45;5.18;;;6.10;99.90;;;;;;5073294;28;20020;-49
2023/01/03 04:33:26;;;;;;;9.05;5.85;;;6.10;99.90;;;;;;5054731;28;20166;-51
2023/01/03 04:35:51;;;;;;;7.97;5.20;;;6.10;99.90;;;;;;5053201;28;20094;-51
2023/01/03 04:38:17;;;;;;;10.45;5.45;;;6.10;99.90;;;;;;5053304;28;20076;-52
2023/01/03 04:40:43;;;;;;;6.05;4.80;;;6.10;99.90;;;;;;5051753;28;20461;-49
2023/01/03 04:45:54;;;;;;;9.00;5.32;;;6.20;99.90;;;;;;5053472;28;20044;-50
2023/01/03 04:48:20;;;;;;;8.82;6.15;;;6.20;99.90;;;;;;5071943;28;20464;-53
2023/01/03 04:50:53;;;;;;;12.10;6.00;;;6.20;99.90;;;;;;5072996;28;20060;-54
2023/01/03 04:53:19;;;;;;;15.70;6.10;;;6.20;99.90;;;;;;5072849;28;20040;-54
2023/01/03 04:55:46;;;;;;;9.60;6.13;;;6.30;99.90;;;;;;5073018;28;20052;-53
2023/01/03 04:58:12;;;;;;;10.52;5.93;;;6.30;99.90;;;;;;5072766;28;20051;-51
2023/01/03 05:00:37;;;;;;;8.55;5.90;;;6.20;99.90;;;;;;5072668;28;20033;-50
2023/01/03 05:03:03;;;;;;;10.80;5.93;;;6.20;99.90;;;;;;5070283;28;20032;-51
2023/01/03 05:05:29;;;;;;;7.78;5.45;;;6.30;99.90;;;;;;5052540;28;20574;-49
2023/01/03 05:07:54;;;;;;;9.45;5.70;;;6.20;99.90;;;;;;5052775;28;20032;-52
2023/01/03 05:10:20;;;;;;;7.80;5.72;;;6.30;99.90;;;;;;5052316;28;20056;-49
2023/01/03 05:12:58;;;;;;;9.00;5.90;;;6.30;99.90;;;;;;5052596;28;20111;-53
2023/01/03 05:15:28;;;;;;;7.70;5.35;;;6.20;99.90;;;;;;5052469;28;20112;-53
2023/01/03 05:17:54;;;;;;;10.43;6.43;;;6.20;99.90;;;;;;5052382;28;20025;-54
2023/01/03 05:25:50;;;;;;;9.35;5.53;;;6.20;99.90;;;;;;5052370;28;20040;-52
2023/01/03 05:28:18;;;;;;;8.45;4.90;;;6.20;99.90;;;;;;5052358;28;20440;-51
2023/01/03 05:30:43;;;;;;;8.27;5.50;;;6.20;99.90;;;;;;5052368;28;20036;-49
2023/01/03 05:33:09;;;;;;;21.90;6.80;;;6.20;99.90;;;;;;5052138;28;20029;-51
2023/01/03 05:35:34;;;;;;;10.70;6.18;;;6.20;99.90;;;;;;5052167;28;20028;-52
2023/01/03 05:38:00;;;;;;;7.75;5.90;;;6.30;99.90;;;;;;5051882;28;20533;-52
2023/01/03 05:40:26;;;;;;;11.77;5.05;;;6.30;99.90;;;;;;5071524;28;20031;-51
2023/01/03 05:42:51;;;;;;;6.72;5.10;;;6.30;99.90;;;;;;5072029;28;20024;-49
2023/01/03 05:45:18;;;;;;;9.77;5.63;;;6.30;99.90;;;;;;5070965;28;20036;-51
2023/01/03 05:47:44;;;;;;;8.25;4.85;;;6.30;99.90;;;;;;5071276;28;20028;-50
2023/01/03 05:50:09;;;;;;;13.98;6.72;;;6.30;99.90;;;;;;5070872;28;20495;-54
2023/01/03 05:52:35;;;;;;;6.43;5.15;;;6.30;99.90;;;;;;5071518;28;20504;-53
2023/01/03 05:55:00;;;;;;;14.85;5.00;;;6.30;99.90;;;;;;5070705;28;20487;-53
2023/01/03 05:57:26;;;;;;;9.38;5.05;;;6.30;99.90;;;;;;5070711;28;20166;-50
2023/01/03 05:59:52;;;;;;;9.27;6.07;;;6.30;99.90;;;;;;5059965;28;20049;-55
2023/01/03 06:02:17;;;;;;;11.25;5.10;;;6.40;99.90;;;;;;5050939;28;20021;-49
2023/01/03 06:04:43;;;;;;;13.10;4.78;;;6.40;99.90;;;;;;5051574;28;20086;-54
2023/01/03 06:07:08;;;;;;;9.50;5.43;;;6.30;99.90;;;;;;5051669;28;20787;-53
2023/01/03 06:09:34;;;;;;;8.38;4.72;;;6.30;99.90;;;;;;5069976;28;20523;-53
2023/01/03 06:12:00;;;;;;;6.53;5.10;;;6.30;99.90;;;;;;5071416;28;20091;-51
2023/01/03 06:14:25;;;;;;;14.32;4.65;;;6.30;99.90;;;;;;5070332;28;20039;-53
2023/01/03 06:19:35;;;;;;;9.45;5.03;;;6.30;99.90;;;;;;5071139;28;20514;-54
2023/01/03 06:22:01;;;;;;;10.15;4.47;;;6.30;99.90;;;;;;5071402;28;20024;-51
2023/01/03 06:24:26;;;;;;;12.32;5.32;;;6.30;99.90;;;;;;5071077;28;20035;-54
2023/01/03 06:26:52;;;;;;;6.38;4.18;;;6.30;99.90;;;;;;5071002;28;20024;-51
2023/01/03 06:29:18;;;;;;;12.57;4.68;;;6.30;99.90;;;;;;5070959;28;20635;-52
2023/01/03 06:31:43;;;;;;;5.63;4.25;;;6.30;99.90;;;;;;5070142;28;20029;-52
2023/01/03 06:34:09;;;;;;;13.02;4.63;;;6.30;99.90;;;;;;5071081;28;20035;-51
2023/01/03 06:36:35;;;;;;;14.25;4.85;;;6.30;99.90;;;;;;5069362;28;20080;-51
2023/01/03 06:39:01;;;;;;;8.30;5.90;;;6.20;99.90;;;;;;5070911;28;20032;-51
2023/01/03 06:41:27;;;;;;;12.02;4.78;;;6.20;99.90;;;;;;5071102;28;20037;-51
2023/01/03 06:43:54;;;;;;;8.52;5.25;;;6.20;99.90;;;;;;5070846;28;20044;-52
2023/01/03 06:54:36;;;;;;;8.25;5.80;;;6.10;99.90;;;;;;5054509;28;20032;-54
2023/01/03 06:57:02;;;;;;;13.65;4.70;;;6.10;99.90;;;;;;5050989;28;20031;-50
2023/01/03 06:59:28;;;;;;;13.50;5.30;;;6.10;99.90;;;;;;5050817;28;20388;-50
2023/01/03 07:01:54;;;;;;;5.38;4.80;;;6.10;99.90;;;;;;5068761;28;20091;-50
2023/01/03 07:04:21;;;;;;;10.75;6.72;;;6.10;99.90;;;;;;5070715;28;20036;-50
2023/01/03 07:06:47;;;;;;;11.10;5.13;;;6.10;99.90;;;;;;5071121;28;20107;-50
2023/01/03 07:09:13;;;;;;;10.60;6.20;;;6.10;99.90;;;;;;5069869;28;20210;-51
2023/01/03 07:11:39;;;;;;;8.25;4.97;;;6.20;99.90;;;;;;5070774;28;20112;-52
2023/01/03 07:14:07;;;;;;;7.25;5.65;;;6.10;99.90;;;;;;5070769;28;20107;-54
2023/01/03 07:16:40;;;;;;;12.55;6.15;;;6.20;99.90;;;;;;5070799;28;20094;-53
2023/01/03 07:19:07;;;;;;;7.25;5.53;;;6.20;99.90;;;;;;5070438;28;20035;-53
2023/01/03 07:21:34;;;;;;;8.07;5.75;;;6.20;99.90;;;;;;5070892;28;20761;-59
2023/01/03 07:24:02;;;;;;;8.77;5.82;;;6.20;99.90;;;;;;5069764;28;20104;-52
2023/01/03 07:26:29;;;;;;;7.68;5.93;;;6.20;99.90;;;;;;5057435;28;20029;-54
2023/01/03 07:28:56;;;;;;;15.45;6.45;;;6.20;99.90;;;;;;5068769;28;20353;-52
2023/01/03 07:31:22;;;;;;;15.68;6.53;;;6.30;99.90;;;;;;5070752;28;20589;-52
2023/01/03 07:33:48;;;;;;;9.98;6.10;;;6.30;99.90;;;;;;5067910;28;20399;-50
2023/01/03 07:36:15;;;;;;;19.75;7.57;;;6.30;99.90;;;;;;5070053;28;20025;-53
2023/01/03 07:38:43;;;;;;;14.63;8.07;;;6.40;99.90;;;;;;5070598;28;20056;-50
2023/01/03 07:41:09;;;;;;;26.08;10.25;;;6.40;99.90;;;;;;5070560;28;20021;-53
2023/01/03 07:43:37;;;;;;;21.38;10.45;;;6.40;99.90;;;;;;5072600;28;20024;-51
2023/01/03 07:46:07;;;;;;;19.48;10.30;;;6.40;99.90;;;;;;5079743;28;20351;-53
2023/01/03 07:48:33;;;;;;;13.68;8.27;;;6.50;99.90;;;;;;5071708;28;20027;-51
2023/01/03 07:50:59;;;;;;;12.90;6.65;;;6.40;99.90;;;;;;5073418;28;20028;-52
2023/01/03 07:53:25;;;;;;;24.98;10.05;;;6.40;99.90;;;;;;5073393;28;20027;-50
2023/01/03 07:55:51;;;;;;;16.15;8.55;;;6.50;99.90;;;;;;5073908;28;20031;-53
2023/01/03 07:58:16;;;;;;;25.02;9.07;;;6.50;99.90;;;;;;5070337;28;20036;-50
2023/01/03 08:00:42;;;;;;;19.15;8.10;;;6.50;99.90;;;;;;5066236;28;20025;-49
2023/01/03 08:03:08;;;;;;;18.10;8.23;;;6.50;99.90;;;;;;5055125;28;20531;-51
2023/01/03 08:05:34;;;;;;;11.63;8.20;;;6.60;99.90;;;;;;5072356;28;20124;-50
2023/01/03 08:08:02;;;;;;;20.10;10.00;;;6.60;99.90;;;;;;5073757;28;20545;-50
2023/01/03 08:13:18;;;;;;;36.22;17.02;;;6.70;99.90;;;;;;5073906;28;20135;-51
2023/01/03 08:15:44;;;;;;;28.33;14.93;;;6.70;99.90;;;;;;5073790;28;20510;-49
2023/01/03 08:18:10;;;;;;;36.53;15.85;;;6.70;99.90;;;;;;5069255;28;20021;-53
2023/01/03 08:20:36;;;;;;;54.30;28.20;;;6.70;99.90;;;;;;5053443;28;20075;-50
2023/01/03 08:23:02;;;;;;;97.07;45.22;;;6.80;99.90;;;;;;5053654;28;20017;-50
2023/01/03 08:25:27;;;;;;;88.93;45.75;;;6.90;99.90;;;;;;5053338;28;20036;-53
2023/01/03 08:27:57;;;;;;;101.80;53.97;;;6.90;99.90;;;;;;5053555;28;20025;-49
2023/01/03 08:30:23;;;;;;;114.55;56.47;;;7.00;99.90;;;;;;5053329;28;20423;-48
2023/01/03 08:32:49;;;;;;;104.80;52.30;;;7.10;99.90;;;;;;5056097;28;20029;-50
2023/01/03 08:35:15;;;;;;;84.53;45.35;;;7.20;99.90;;;;;;5073361;28;20482;-51
2023/01/03 08:37:43;;;;;;;81.65;43.15;;;7.20;99.90;;;;;;5073197;28;20027;-50
2023/01/03 08:40:13;;;;;;;93.88;46.90;;;7.20;99.90;;;;;;5073143;28;20017;-52
2023/01/03 08:42:38;;;;;;;79.82;40.30;;;7.30;99.90;;;;;;5073162;28;21591;-52
2023/01/03 08:45:11;;;;;;;28.67;18.42;;;7.30;99.90;;;;;;5073150;28;20048;-53
2023/01/03 08:47:37;;;;;;;13.27;9.10;;;7.40;99.90;;;;;;5068987;28;21136;-50
2023/01/03 08:50:03;;;;;;;8.70;6.30;;;7.60;99.90;;;;;;5053183;28;20166;-54
2023/01/03 08:52:29;;;;;;;118.32;51.55;;;7.80;99.90;;;;;;5052582;28;20112;-51
2023/01/03 08:54:55;;;;;;;64.07;34.30;;;7.80;99.90;;;;;;5051577;28;20499;-50
2023/01/03 08:57:20;;;;;;;172.15;89.43;;;7.80;99.90;;;;;;5052872;28;20021;-54
2023/01/03 08:59:46;;;;;;;36.47;17.13;;;7.80;99.90;;;;;;5052814;28;20066;-51
2023/01/03 09:02:12;;;;;;;9.63;7.22;;;7.90;99.90;;;;;;5054778;28;20095;-50
2023/01/03 09:04:37;;;;;;;14.10;8.10;;;7.90;99.90;;;;;;5071252;28;20036;-51
2023/01/03 09:07:04;;;;;;;14.07;8.07;;;8.00;99.90;;;;;;5072603;28;20048;-54
2023/01/03 09:09:30;;;;;;;13.68;8.50;;;7.90;99.90;;;;;;5071056;28;20051;-54
2023/01/03 09:11:56;;;;;;;22.23;14.20;;;8.00;99.90;;;;;;5072563;28;20025;-51
2023/01/03 09:14:21;;;;;;;8.50;6.82;;;7.90;99.90;;;;;;5072301;28;20028;-49
2023/01/03 09:16:47;;;;;;;15.38;10.70;;;7.90;99.90;;;;;;5071009;28;20104;-51
2023/01/03 09:19:13;;;;;;;44.60;24.88;;;7.90;99.90;;;;;;5052541;28;20091;-50
2023/01/03 09:21:38;;;;;;;9.43;7.72;;;7.90;99.90;;;;;;5052233;28;20083;-51
2023/01/03 09:24:04;;;;;;;27.95;15.93;;;7.90;99.90;;;;;;5052419;28;20064;-50
2023/01/03 09:26:30;;;;;;;18.77;13.10;;;7.90;99.90;;;;;;5051949;28;20025;-49
2023/01/03 09:28:56;;;;;;;7.10;6.30;;;7.90;99.90;;;;;;5052125;28;20029;-52
2023/01/03 09:31:21;;;;;;;8.82;7.75;;;8.00;99.90;;;;;;5051937;28;20078;-50
2023/01/03 09:33:47;;;;;;;6.65;5.97;;;8.00;99.90;;;;;;5071449;28;20059;-54
2023/01/03 09:36:13;;;;;;;7.05;6.35;;;8.10;99.90;;;;;;5071839;28;20032;-51
2023/01/03 09:38:38;;;;;;;9.35;6.10;;;8.20;99.90;;;;;;5071577;28;20054;-54
2023/01/03 09:41:07;;;;;;;7.60;5.10;;;8.20;99.90;;;;;;5072111;28;20025;-53
2023/01/03 09:43:39;;;;;;;6.38;5.00;;;8.30;99.90;;;;;;5071639;28;20039;-52
2023/01/03 09:46:10;;;;;;;6.28;5.20;;;8.40;99.90;;;;;;5071884;28;20027;-52
2023/01/03 09:48:39;;;;;;;5.80;5.30;;;8.40;99.90;;;;;;5070262;28;20068;-51
2023/01/03 10:03:42;;;;;;;5.35;4.90;;;8.50;99.90;;;;;;5071794;28;20020;-55
2023/01/03 10:05:28;;;;;;;7.25;5.63;;;8.50;99.90;;;;;;5051155;28;20036;-50
2023/01/03 10:07:57;;;;;;;6.95;5.40;;;8.50;99.90;;;;;;5065227;28;20138;-53
2023/01/03 10:10:40;;;;;;;10.30;5.40;;;8.50;99.90;;;;;;5071241;28;20049;-49
2023/01/03 10:13:39;;;;;;;5.80;5.20;;;8.50;99.90;;;;;;5071346;28;20055;-52
2023/01/03 10:16:26;;;;;;;5.82;5.25;;;8.70;99.90;;;;;;5071612;28;20428;-51
2023/01/03 10:18:58;;;;;;;7.22;6.43;;;8.70;99.90;;;;;;5071579;28;20024;-54
2023/01/03 10:21:35;;;;;;;7.35;6.07;;;8.70;99.90;;;;;;5071127;28;20028;-52
2023/01/03 10:24:08;;;;;;;7.70;6.32;;;8.70;99.90;;;;;;5071593;28;20055;-53
2023/01/03 10:26:34;;;;;;;5.63;5.13;;;8.80;99.90;;;;;;5065781;28;20046;-53
2023/01/03 10:29:00;;;;;;;18.88;6.57;;;8.80;99.90;;;;;;5070556;28;20033;-50
2023/01/03 10:31:38;;;;;;;10.70;5.95;;;8.80;99.90;;;;;;5070740;28;20017;-49
2023/01/03 10:34:05;;;;;;;10.63;6.07;;;8.90;99.90;;;;;;5071590;28;20035;-49
2023/01/03 10:36:30;;;;;;;8.50;6.22;;;8.90;99.90;;;;;;5070596;28;20383;-53
2023/01/03 10:39:07;;;;;;;6.35;5.75;;;9.00;99.90;;;;;;5071369;28;20038;-50
2023/01/03 10:41:45;;;;;;;7.35;5.90;;;9.00;99.90;;;;;;5063414;28;20104;-53
2023/01/03 10:44:28;;;;;;;7.72;6.25;;;9.00;99.90;;;;;;5055482;28;20024;-51
2023/01/03 10:46:57;;;;;;;6.32;5.57;;;8.90;99.90;;;;;;5069839;28;20490;-52
2023/01/03 10:49:25;;;;;;;9.88;5.53;;;9.00;99.90;;;;;;5069894;28;20111;-52
2023/01/03 10:52:08;;;;;;;6.63;5.82;;;9.00;99.90;;;;;;5071166;28;20082;-52
2023/01/03 10:54:39;;;;;;;8.45;4.93;;;9.00;99.90;;;;;;5070586;28;20028;-49
2023/01/03 10:57:05;;;;;;;9.45;5.35;;;9.10;99.90;;;;;;5070939;28;20073;-50
2023/01/03 10:59:32;;;;;;;7.68;5.20;;;9.00;99.90;;;;;;5071109;28;20029;-51
2023/01/03 11:02:13;;;;;;;7.55;6.38;;;9.10;99.90;;;;;;5069254;28;20032;-51
2023/01/03 11:04:39;;;;;;;6.00;5.40;;;9.00;99.90;;;;;;5070910;28;20451;-51
2023/01/03 11:07:08;;;;;;;12.73;9.57;;;9.10;99.90;;;;;;5070763;28;20088;-50
2023/01/03 11:09:48;;;;;;;8.18;7.18;;;9.00;99.90;;;;;;5064367;28;20124;-51
2023/01/03 11:12:29;;;;;;;10.27;6.38;;;9.10;99.90;;;;;;5048749;28;20025;-56
2023/01/03 11:14:56;;;;;;;9.70;7.05;;;9.10;99.90;;;;;;5050193;28;20025;-52
2023/01/03 11:17:25;;;;;;;5.32;4.82;;;9.10;99.90;;;;;;5053334;28;20036;-49
2023/01/03 11:19:51;;;;;;;6.72;5.70;;;9.10;99.90;;;;;;5065819;28;20124;-53
2023/01/03 11:22:32;;;;;;;8.85;5.97;;;9.20;99.90;;;;;;5073538;28;20020;-51
2023/01/03 11:25:32;;;;;;;9.05;6.30;;;9.10;99.90;;;;;;5073042;28;20067;-54
2023/01/03 11:28:24;;;;;;;8.85;6.53;;;9.20;99.90;;;;;;5074108;28;20060;-54
2023/01/03 11:31:24;;;;;;;7.22;5.07;;;9.20;99.90;;;;;;5072319;28;20036;-53
2023/01/03 11:34:08;;;;;;;7.05;5.55;;;9.20;99.90;;;;;;5072956;28;20044;-51
2023/01/03 11:36:34;;;;;;;9.02;6.20;;;9.20;99.90;;;;;;5073856;28;20116;-50
2023/01/03 11:39:14;;;;;;;9.40;7.20;;;9.20;99.90;;;;;;5073519;28;20100;-52
2023/01/03 11:41:52;;;;;;;11.68;9.43;;;9.10;99.90;;;;;;5074073;28;20400;-53
2023/01/03 11:45:00;;;;;;;30.70;22.90;;;9.10;99.90;;;;;;5063104;28;20021;-49
2023/01/03 11:47:35;;;;;;;9.45;7.32;;;9.10;99.90;;;;;;5053314;28;20040;-52
2023/01/03 11:50:42;;;;;;;6.38;5.10;;;9.20;99.90;;;;;;5053912;28;20025;-50
2023/01/03 11:53:54;;;;;;;9.80;6.93;;;9.20;99.90;;;;;;5064636;28;20037;-52
2023/01/03 11:56:30;;;;;;;17.00;12.32;;;9.10;99.90;;;;;;5050682;28;20569;-53
2023/01/03 11:59:17;;;;;;;7.38;6.47;;;9.10;99.90;;;;;;5053498;28;20045;-54
2023/01/03 12:01:53;;;;;;;8.52;7.20;;;9.10;99.90;;;;;;5053778;28;20020;-52
2023/01/03 12:04:46;;;;;;;11.57;7.35;;;9.30;99.90;;;;;;5060480;28;20031;-54
2023/01/03 12:07:24;;;;;;;8.15;6.72;;;9.30;99.90;;;;;;5072819;28;20045;-55
2023/01/03 12:10:15;;;;;;;8.85;6.72;;;9.30;99.90;;;;;;5071581;28;20064;-51
2023/01/03 12:13:07;;;;;;;8.50;6.57;;;9.30;99.90;;;;;;5073105;28;20036;-51
2023/01/03 12:15:47;;;;;;;11.65;7.63;;;9.30;99.90;;;;;;5073093;28;20408;-52
2023/01/03 12:18:21;;;;;;;10.35;7.40;;;9.20;99.90;;;;;;5073318;28;20031;-52
2023/01/03 12:21:18;;;;;;;7.50;6.72;;;9.20;99.90;;;;;;5073423;28;20113;-52
2023/01/03 12:23:55;;;;;;;7.53;6.65;;;9.20;99.90;;;;;;5073099;28;20128;-52
2023/01/03 12:26:24;;;;;;;10.32;8.68;;;9.20;99.90;;;;;;5072514;28;20024;-55
2023/01/03 12:28:58;;;;;;;6.97;6.28;;;9.10;99.90;;;;;;5072315;28;20150;-53
2023/01/03 12:31:37;;;;;;;11.65;7.97;;;9.10;99.90;;;;;;5072832;28;20025;-50
2023/01/03 12:34:11;;;;;;;13.23;9.65;;;9.30;99.90;;;;;;5071519;28;20044;-51
2023/01/03 12:36:47;;;;;;;11.07;8.10;;;9.30;99.90;;;;;;5073014;28;20017;-51
2023/01/03 12:39:31;;;;;;;15.68;10.70;;;9.10;99.90;;;;;;5072391;28;20024;-54
2023/01/03 12:42:18;;;;;;;17.13;9.45;;;9.00;99.90;;;;;;5056762;28;20025;-52
2023/01/03 12:44:46;;;;;;;14.80;8.65;;;8.90;99.90;;;;;;5053113;28;20375;-55
2023/01/03 12:47:34;;;;;;;8.48;6.95;;;9.00;99.90;;;;;;5071728;28;20029;-52
2023/01/03 12:50:04;;;;;;;9.68;6.93;;;9.10;99.90;;;;;;5072917;28;20044;-52
2023/01/03 12:52:32;;;;;;;6.82;6.13;;;9.10;99.90;;;;;;5072553;28;20056;-51
2023/01/03 12:55:24;;;;;;;7.13;6.13;;;9.10;99.90;;;;;;5072968;28;20082;-52
2023/01/03 12:58:19;;;;;;;8.90;6.88;;;9.00;99.90;;;;;;5060013;28;20049;-50
2023/01/03 13:00:56;;;;;;;7.63;6.25;;;8.90;99.90;;;;;;5060521;28;20041;-53
2023/01/03 13:03:45;;;;;;;7.07;6.30;;;9.00;99.90;;;;;;5061854;28;20024;-50
2023/01/03 13:06:34;;;;;;;11.77;6.55;;;9.00;99.90;;;;;;5071097;28;20467;-52
2023/01/03 13:09:10;;;;;;;10.70;7.18;;;9.10;99.90;;;;;;5072210;28;20044;-49
2023/01/03 13:11:47;;;;;;;10.45;6.75;;;9.00;99.90;;;;;;5072271;28;20067;-54
2023/01/03 13:14:20;;;;;;;7.72;6.68;;;9.00;99.90;;;;;;5071694;28;20085;-51
2023/01/03 13:16:48;;;;;;;7.47;6.18;;;9.00;99.90;;;;;;5053735;28;20102;-49
2023/01/03 13:19:22;;;;;;;6.70;6.00;;;9.00;99.90;;;;;;5052272;28;20160;-50
2023/01/03 13:21:50;;;;;;;7.20;6.47;;;9.00;99.90;;;;;;5070675;28;20040;-50
2023/01/03 13:24:43;;;;;;;12.65;8.45;;;9.00;99.90;;;;;;5072397;28;20361;-51
2023/01/03 13:27:18;;;;;;;7.33;6.63;;;9.00;99.90;;;;;;5072280;28;20028;-52
2023/01/03 13:29:49;;;;;;;7.18;5.82;;;8.90;99.90;;;;;;5071389;28;20324;-51
2023/01/03 13:32:21;;;;;;;5.70;5.20;;;8.80;99.90;;;;;;5072049;28;20035;-51
2023/01/03 13:34:55;;;;;;;6.50;5.90;;;8.90;99.90;;;;;;5071947;28;20078;-50
2023/01/03 13:37:25;;;;;;;6.10;5.50;;;8.90;99.90;;;;;;5071477;28;20431;-51
2023/01/03 13:39:50;;;;;;;6.55;6.03;;;8.80;99.90;;;;;;5071095;28;20013;-47
2023/01/03 13:42:39;;;;;;;8.23;6.95;;;8.70;99.90;;;;;;5071990;28;20529;-47
2023/01/03 13:45:14;;;;;;;13.57;7.35;;;8.60;99.90;;;;;;5070935;28;20131;-50
2023/01/03 13:47:50;;;;;;;6.97;6.10;;;8.60;99.90;;;;;;5071770;28;20110;-53
2023/01/03 13:50:20;;;;;;;16.80;11.98;;;8.60;99.90;;;;;;5071715;28;20029;-50
2023/01/03 13:53:02;;;;;;;16.33;12.05;;;8.60;99.90;;;;;;5070520;28;20499;-51
2023/01/03 13:55:46;;;;;;;35.30;21.80;;;8.60;99.90;;;;;;5071056;28;20054;-51
2023/01/03 13:58:26;;;;;;;12.85;9.18;;;8.60;99.90;;;;;;5061587;28;20372;-51
2023/01/03 14:00:53;;;;;;;14.15;11.27;;;8.70;99.90;;;;;;5051726;28;20407;-49
2023/01/03 14:03:56;;;;;;;34.40;22.90;;;8.70;99.90;;;;;;5051435;28;20060;-50
2023/01/03 14:06:36;;;;;;;22.83;17.60;;;8.60;99.90;;;;;;5051432;28;20017;-50
2023/01/03 14:09:23;;;;;;;17.23;14.43;;;8.60;99.90;;;;;;5051549;28;20029;-51
2023/01/03 14:12:12;;;;;;;17.35;12.90;;;8.50;99.90;;;;;;5053242;28;20056;-53